createdAt,value
2018-09-20T00:01:26.666Z,18.48
2018-09-20T00:03:54.906Z,18.54
2018-09-20T00:06:23.152Z,18.52
2018-09-20T00:08:51.452Z,18.35
2018-09-20T00:11:19.706Z,18.36
2018-09-20T00:13:47.935Z,18.42
2018-09-20T00:16:18.452Z,18.43
2018-09-20T00:18:46.716Z,18.41
2018-09-20T00:21:14.928Z,18.33
2018-09-20T00:23:42.993Z,18.28
2018-09-20T00:26:11.087Z,18.18
2018-09-20T00:28:39.172Z,18.11
2018-09-20T00:31:07.268Z,17.94
2018-09-20T00:33:35.337Z,17.98
2018-09-20T00:36:03.432Z,17.88
2018-09-20T00:38:31.495Z,17.91
2018-09-20T00:40:59.581Z,17.95
2018-09-20T00:43:27.649Z,17.96
2018-09-20T00:45:55.734Z,17.97
2018-09-20T00:48:23.824Z,18.01
2018-09-20T00:50:51.899Z,17.96
2018-09-20T00:53:20.016Z,17.95
2018-09-20T00:55:48.111Z,17.88
2018-09-20T00:58:16.184Z,17.79
2018-09-20T01:00:44.266Z,17.61
2018-09-20T01:03:12.341Z,17.61
2018-09-20T01:05:40.531Z,17.56
2018-09-20T01:08:08.679Z,17.55
2018-09-20T01:10:36.771Z,17.58
2018-09-20T01:13:04.856Z,17.64
2018-09-20T01:15:33.111Z,17.64
2018-09-20T01:18:01.195Z,17.62
2018-09-20T01:20:29.279Z,17.64
2018-09-20T01:22:57.356Z,17.54
2018-09-20T01:25:25.423Z,17.37
2018-09-20T01:27:53.492Z,17.33
2018-09-20T01:30:21.613Z,17.23
2018-09-20T01:32:49.757Z,17.26
2018-09-20T01:35:17.836Z,17.24
2018-09-20T01:37:45.923Z,17.32
2018-09-20T01:40:14.035Z,17.36
2018-09-20T01:42:42.123Z,17.44
2018-09-20T01:45:10.231Z,17.33
2018-09-20T01:47:38.384Z,17.35
2018-09-20T01:50:06.635Z,17.34
2018-09-20T01:52:34.725Z,17.39
2018-09-20T01:55:02.960Z,17.41
2018-09-20T01:57:31.031Z,17.35
2018-09-20T01:59:59.139Z,17.41
2018-09-20T02:02:27.280Z,17.35
2018-09-20T02:04:55.433Z,17.29
2018-09-20T02:07:23.542Z,17.32
2018-09-20T02:09:51.614Z,17.32
2018-09-20T02:12:19.692Z,17.40
2018-09-20T02:14:47.783Z,17.14
2018-09-20T02:17:15.979Z,17.12
2018-09-20T02:19:44.052Z,17.14
2018-09-20T02:22:12.136Z,17.15
2018-09-20T02:24:40.205Z,17.22
2018-09-20T02:27:08.308Z,17.25
2018-09-20T02:29:36.389Z,17.33
2018-09-20T02:32:04.508Z,17.29
2018-09-20T02:34:32.591Z,17.28
2018-09-20T02:37:00.684Z,17.24
2018-09-20T02:39:28.765Z,17.01
2018-09-20T02:41:56.867Z,17.04
2018-09-20T02:44:24.949Z,17.05
2018-09-20T02:46:59.402Z,17.15
2018-09-20T02:49:27.514Z,17.17
2018-09-20T02:51:55.609Z,17.14
2018-09-20T02:54:23.691Z,17.15
2018-09-20T02:56:51.772Z,17.22
2018-09-20T02:59:19.855Z,17.13
2018-09-20T03:01:48.041Z,17.02
2018-09-20T03:04:16.181Z,16.97
2018-09-20T03:06:44.241Z,16.94
2018-09-20T03:09:12.517Z,16.94
2018-09-20T03:11:40.604Z,16.84
2018-09-20T03:14:08.822Z,16.86
2018-09-20T03:16:36.928Z,16.87
2018-09-20T03:19:05.356Z,16.79
2018-09-20T03:21:33.425Z,16.80
2018-09-20T03:24:01.537Z,16.78
2018-09-20T03:26:29.666Z,16.67
2018-09-20T03:28:57.728Z,16.65
2018-09-20T03:31:25.847Z,16.48
2018-09-20T03:33:54.089Z,16.44
2018-09-20T03:36:22.171Z,16.32
2018-09-20T03:38:50.256Z,16.26
2018-09-20T03:41:18.359Z,16.20
2018-09-20T03:43:53.223Z,16.18
2018-09-20T03:46:21.356Z,16.19
2018-09-20T03:48:49.516Z,16.28
2018-09-20T03:51:17.595Z,16.39
2018-09-20T03:53:45.689Z,16.50
2018-09-20T03:56:13.760Z,16.60
2018-09-20T03:58:41.867Z,16.46
2018-09-20T04:01:09.962Z,16.56
2018-09-20T04:03:38.070Z,16.54
2018-09-20T04:06:06.213Z,16.53
2018-09-20T04:08:34.335Z,16.56
2018-09-20T04:11:02.419Z,16.59
2018-09-20T04:13:30.495Z,16.58
2018-09-20T04:15:58.769Z,16.63
2018-09-20T04:18:26.885Z,16.59
2018-09-20T04:20:54.987Z,16.56
2018-09-20T04:23:23.083Z,16.60
2018-09-20T04:25:51.155Z,16.67
2018-09-20T04:28:19.263Z,16.68
2018-09-20T04:30:47.350Z,16.66
2018-09-20T04:33:15.536Z,16.74
2018-09-20T04:35:43.615Z,16.75
2018-09-20T04:38:11.692Z,16.77
2018-09-20T04:40:39.750Z,16.76
2018-09-20T04:43:07.843Z,16.80
2018-09-20T04:45:36.070Z,16.89
2018-09-20T04:48:04.300Z,16.92
2018-09-20T04:50:32.391Z,16.88
2018-09-20T04:53:00.486Z,16.86
2018-09-20T04:55:28.564Z,16.90
2018-09-20T04:57:56.629Z,16.90
2018-09-20T05:00:24.703Z,16.83
2018-09-20T05:02:52.816Z,16.79
2018-09-20T05:05:20.924Z,16.76
2018-09-20T05:07:48.996Z,16.76
2018-09-20T05:10:17.081Z,16.78
2018-09-20T05:12:45.182Z,16.76
2018-09-20T05:15:13.274Z,16.76
2018-09-20T05:17:41.351Z,16.70
2018-09-20T05:20:09.474Z,16.74
2018-09-20T05:22:37.539Z,16.74
2018-09-20T05:25:05.640Z,16.77
2018-09-20T05:27:33.896Z,16.77
2018-09-20T05:30:02.019Z,16.74
2018-09-20T05:32:30.149Z,16.73
2018-09-20T05:34:58.192Z,16.74
2018-09-20T05:37:26.249Z,16.74
2018-09-20T05:39:54.320Z,16.74
2018-09-20T05:42:22.438Z,16.73
2018-09-20T05:44:50.507Z,16.71
2018-09-20T05:47:18.584Z,16.75
2018-09-20T05:49:46.648Z,16.75
2018-09-20T05:52:14.752Z,16.78
2018-09-20T05:54:42.843Z,16.80
2018-09-20T05:57:10.961Z,16.80
2018-09-20T05:59:40.364Z,16.83
2018-09-20T06:02:08.539Z,16.84
2018-09-20T06:04:36.647Z,16.87
2018-09-20T06:07:04.787Z,16.93
2018-09-20T06:09:32.861Z,16.96
2018-09-20T06:12:01.015Z,16.96
2018-09-20T06:14:29.091Z,16.94
2018-09-20T06:16:57.175Z,16.97
2018-09-20T06:19:25.235Z,16.96
2018-09-20T06:21:53.371Z,16.89
2018-09-20T06:24:21.424Z,16.91
2018-09-20T06:26:49.505Z,16.98
2018-09-20T06:29:17.574Z,17.05
2018-09-20T06:31:45.669Z,17.08
2018-09-20T06:34:13.790Z,17.14
2018-09-20T06:36:42.089Z,17.20
2018-09-20T06:39:11.770Z,17.24
2018-09-20T06:41:39.963Z,17.29
2018-09-20T06:44:08.046Z,17.33
2018-09-20T06:46:36.183Z,17.39
2018-09-20T06:49:04.423Z,17.43
2018-09-20T06:51:32.535Z,17.48
2018-09-20T06:54:00.684Z,17.55
2018-09-20T06:56:28.866Z,17.65
2018-09-20T06:58:56.915Z,17.65
2018-09-20T07:01:24.992Z,17.71
2018-09-20T07:06:27.618Z,17.90
2018-09-20T07:08:55.675Z,18.02
2018-09-20T07:11:23.754Z,18.09
2018-09-20T07:13:51.832Z,18.28
2018-09-20T07:16:19.927Z,18.39
2018-09-20T07:18:48.055Z,18.52
2018-09-20T07:21:16.135Z,18.64
2018-09-20T07:23:44.221Z,18.82
2018-09-20T07:26:12.291Z,18.96
2018-09-20T07:28:40.376Z,19.01
2018-09-20T07:31:08.480Z,19.12
2018-09-20T07:33:36.552Z,19.22
2018-09-20T07:36:04.640Z,19.33
2018-09-20T07:38:32.730Z,19.44
2018-09-20T07:41:00.807Z,19.61
2018-09-20T07:43:28.975Z,19.67
2018-09-20T07:45:56.974Z,19.82
2018-09-20T07:48:25.066Z,19.89
2018-09-20T07:50:53.420Z,19.98
2018-09-20T07:53:21.561Z,20.05
2018-09-20T07:55:49.647Z,20.16
2018-09-20T07:58:17.732Z,20.20
2018-09-20T08:00:45.832Z,20.23
2018-09-20T08:03:13.904Z,20.34
2018-09-20T08:05:42.009Z,20.54
2018-09-20T08:08:10.095Z,20.60
2018-09-20T08:10:38.168Z,20.62
2018-09-20T08:13:06.259Z,20.74
2018-09-20T08:15:34.365Z,20.87
2018-09-20T08:18:02.493Z,20.97
2018-09-20T08:20:30.688Z,21.10
2018-09-20T08:22:58.784Z,21.19
2018-09-20T08:25:26.880Z,21.30
2018-09-20T08:27:55.011Z,21.41
2018-09-20T08:30:23.050Z,21.58
2018-09-20T08:32:51.176Z,21.70
2018-09-20T08:35:19.287Z,21.82
2018-09-20T08:37:47.787Z,21.94
2018-09-20T08:40:15.776Z,22.00
2018-09-20T08:42:43.854Z,22.17
2018-09-20T08:45:11.923Z,22.33
2018-09-20T08:47:40.000Z,22.40
2018-09-20T08:50:08.265Z,22.44
2018-09-20T08:52:36.385Z,22.52
2018-09-20T08:55:04.443Z,22.53
2018-09-20T08:57:38.116Z,22.63
2018-09-20T09:00:06.699Z,22.73
2018-09-20T09:02:34.820Z,22.78
2018-09-20T09:05:02.926Z,22.99
2018-09-20T09:07:31.014Z,22.99
2018-09-20T09:09:59.073Z,23.03
2018-09-20T09:12:27.128Z,23.08
2018-09-20T09:14:55.264Z,23.31
2018-09-20T09:17:23.372Z,23.36
2018-09-20T09:19:51.456Z,23.41
2018-09-20T09:22:19.527Z,23.58
2018-09-20T09:24:47.606Z,23.52
2018-09-20T09:27:15.696Z,23.54
2018-09-20T09:29:43.785Z,23.58
2018-09-20T09:32:11.866Z,23.67
2018-09-20T09:34:40.006Z,23.68
2018-09-20T09:37:08.082Z,23.81
2018-09-20T09:39:36.151Z,23.78
2018-09-20T09:42:04.228Z,23.85
2018-09-20T09:44:32.294Z,23.96
2018-09-20T09:47:00.384Z,24.08
2018-09-20T09:49:28.460Z,24.21
2018-09-20T09:51:56.551Z,24.24
2018-09-20T09:54:24.672Z,24.26
2018-09-20T09:56:52.720Z,24.38
2018-09-20T09:59:20.800Z,24.37
2018-09-20T10:01:48.980Z,24.32
2018-09-20T10:04:17.055Z,24.56
2018-09-20T10:06:45.140Z,24.73
2018-09-20T10:09:13.227Z,24.76
2018-09-20T10:11:41.323Z,24.85
2018-09-20T10:14:16.060Z,24.93
2018-09-20T10:16:44.140Z,24.95
2018-09-20T10:19:12.243Z,25.06
2018-09-20T10:21:40.334Z,24.99
2018-09-20T10:24:08.408Z,25.00
2018-09-20T10:26:36.488Z,25.07
2018-09-20T10:29:04.560Z,25.16
2018-09-20T10:31:32.872Z,25.38
2018-09-20T10:34:00.919Z,25.58
2018-09-20T10:36:28.969Z,25.54
2018-09-20T10:38:57.035Z,25.64
2018-09-20T10:41:25.132Z,25.76
2018-09-20T10:43:53.223Z,25.74
2018-09-20T10:46:21.319Z,25.70
2018-09-20T10:48:49.413Z,25.79
2018-09-20T10:51:17.531Z,25.82
2018-09-20T10:53:45.631Z,25.75
2018-09-20T10:56:13.692Z,25.88
2018-09-20T10:58:41.824Z,25.95
2018-09-20T11:01:09.948Z,26.09
2018-09-20T11:03:38.076Z,26.22
2018-09-20T11:06:06.295Z,26.27
2018-09-20T11:08:34.435Z,26.26
2018-09-20T11:11:02.604Z,26.15
2018-09-20T11:13:30.672Z,26.35
2018-09-20T11:15:58.832Z,26.57
2018-09-20T11:18:26.983Z,26.49
2018-09-20T11:20:55.123Z,26.73
2018-09-20T11:23:23.221Z,26.76
2018-09-20T11:25:51.373Z,26.77
2018-09-20T11:28:19.435Z,26.76
2018-09-20T11:30:47.560Z,26.72
2018-09-20T11:33:15.675Z,26.78
2018-09-20T11:35:43.774Z,26.82
2018-09-20T11:38:11.904Z,26.80
2018-09-20T11:40:40.033Z,26.93
2018-09-20T11:43:08.137Z,27.05
2018-09-20T11:45:36.296Z,27.25
2018-09-20T11:48:04.417Z,27.23
2018-09-20T11:50:32.533Z,27.14
2018-09-20T11:53:00.674Z,27.30
2018-09-20T11:55:28.791Z,27.40
2018-09-20T11:57:56.904Z,27.47
2018-09-20T12:00:24.972Z,27.44
2018-09-20T12:02:53.441Z,27.56
2018-09-20T12:05:22.092Z,27.65
2018-09-20T12:07:50.171Z,27.53
2018-09-20T12:10:19.048Z,27.54
2018-09-20T12:12:47.316Z,27.60
2018-09-20T12:15:15.424Z,27.62
2018-09-20T12:17:43.531Z,27.78
2018-09-20T12:20:11.611Z,28.03
2018-09-20T12:22:39.705Z,27.85
2018-09-20T12:25:07.787Z,27.92
2018-09-20T12:27:35.879Z,27.96
2018-09-20T12:30:04.284Z,28.06
2018-09-20T12:32:32.405Z,28.14
2018-09-20T12:35:00.475Z,28.08
2018-09-20T12:37:33.847Z,28.13
2018-09-20T12:40:01.979Z,28.15
2018-09-20T12:42:30.119Z,28.07
2018-09-20T12:44:58.230Z,28.05
2018-09-20T12:47:26.335Z,28.15
2018-09-20T12:49:54.400Z,28.09
2018-09-20T12:52:22.491Z,28.19
2018-09-20T12:54:50.565Z,28.12
2018-09-20T12:57:18.664Z,28.33
2018-09-20T12:59:46.734Z,28.36
2018-09-20T13:02:14.880Z,28.43
2018-09-20T13:04:42.964Z,28.39
2018-09-20T13:07:11.048Z,28.57
2018-09-20T13:09:39.123Z,28.45
2018-09-20T13:12:07.205Z,28.45
2018-09-20T13:14:35.286Z,28.54
2018-09-20T13:17:03.412Z,28.54
2018-09-20T13:19:31.489Z,28.53
2018-09-20T13:21:59.569Z,28.57
2018-09-20T13:24:27.655Z,28.64
2018-09-20T13:26:55.748Z,28.65
2018-09-20T13:29:30.564Z,28.53
2018-09-20T13:31:58.655Z,28.76
2018-09-20T13:34:26.727Z,28.76
2018-09-20T13:36:54.829Z,28.75
2018-09-20T13:39:22.913Z,28.73
2018-09-20T13:41:50.991Z,28.69
2018-09-20T13:44:19.078Z,28.80
2018-09-20T13:46:47.175Z,28.86
2018-09-20T13:49:15.254Z,28.88
2018-09-20T13:51:43.400Z,28.94
2018-09-20T13:54:11.447Z,28.95
2018-09-20T13:56:39.515Z,28.99
2018-09-20T13:59:07.576Z,28.97
2018-09-20T14:01:35.644Z,28.95
2018-09-20T14:04:03.711Z,28.94
2018-09-20T14:06:31.815Z,29.02
2018-09-20T14:08:59.885Z,28.83
2018-09-20T14:11:27.951Z,28.86
2018-09-20T14:13:56.010Z,28.81
2018-09-20T14:16:24.387Z,28.68
2018-09-20T14:18:52.465Z,28.65
2018-09-20T14:21:20.531Z,28.80
2018-09-20T14:23:48.705Z,28.87
2018-09-20T14:26:16.728Z,29.04
2018-09-20T14:28:44.881Z,29.10
2018-09-20T14:31:12.967Z,29.09
2018-09-20T14:33:41.030Z,29.15
2018-09-20T14:36:09.092Z,29.20
2018-09-20T14:38:37.187Z,29.21
2018-09-20T14:41:05.283Z,29.12
2018-09-20T14:43:33.346Z,28.89
2018-09-20T14:46:01.420Z,28.95
2018-09-20T14:48:29.487Z,28.88
2018-09-20T14:50:57.596Z,28.94
2018-09-20T14:53:25.682Z,28.95
2018-09-20T14:55:53.775Z,28.98
2018-09-20T14:58:21.838Z,28.94
2018-09-20T15:00:50.107Z,28.98
2018-09-20T15:03:18.732Z,28.84
2018-09-20T15:05:46.799Z,28.81
2018-09-20T15:08:14.909Z,28.76
2018-09-20T15:10:42.982Z,28.74
2018-09-20T15:13:11.036Z,28.68
2018-09-20T15:15:39.139Z,28.58
2018-09-20T15:18:07.207Z,28.62
2018-09-20T15:20:35.298Z,28.59
2018-09-20T15:23:03.379Z,28.67
2018-09-20T15:25:31.456Z,28.67
2018-09-20T15:27:59.519Z,28.57
2018-09-20T15:30:27.620Z,28.53
2018-09-20T15:32:55.715Z,28.58
2018-09-20T15:35:23.789Z,28.54
2018-09-20T15:37:51.862Z,28.49
2018-09-20T15:40:19.913Z,28.44
2018-09-20T15:42:47.985Z,28.48
2018-09-20T15:45:16.047Z,28.42
2018-09-20T15:47:44.475Z,28.50
2018-09-20T15:50:12.552Z,28.40
2018-09-20T15:52:40.646Z,28.25
2018-09-20T15:55:08.708Z,28.21
2018-09-20T15:57:36.788Z,28.07
2018-09-20T16:00:05.332Z,27.95
2018-09-20T16:02:33.395Z,28.06
2018-09-20T16:05:01.566Z,27.79
2018-09-20T16:07:29.716Z,28.00
2018-09-20T16:09:57.804Z,27.90
2018-09-20T16:12:25.887Z,27.79
2018-09-20T16:14:54.013Z,27.72
2018-09-20T16:17:22.169Z,27.59
2018-09-20T16:19:50.230Z,27.50
2018-09-20T16:22:18.323Z,27.49
2018-09-20T16:24:46.411Z,27.47
2018-09-20T16:27:14.512Z,27.46
2018-09-20T16:30:21.768Z,27.46
2018-09-20T16:33:44.598Z,27.38
2018-09-20T16:36:24.063Z,27.10
2018-09-20T16:38:59.869Z,27.07
2018-09-20T16:41:36.751Z,27.07
2018-09-20T16:44:07.182Z,27.04
2018-09-20T16:46:36.721Z,27.01
2018-09-20T16:49:06.707Z,26.83
2018-09-20T16:51:37.607Z,26.74
2018-09-20T16:54:06.713Z,26.61
2018-09-20T16:56:35.359Z,26.60
2018-09-20T16:59:04.412Z,26.53
2018-09-20T17:01:35.170Z,26.45
2018-09-20T17:04:04.538Z,26.36
2018-09-20T17:06:35.948Z,26.28
2018-09-20T17:09:07.790Z,26.11
2018-09-20T17:11:39.675Z,26.08
2018-09-20T17:14:23.224Z,25.96
2018-09-20T17:17:00.052Z,25.87
2018-09-20T17:19:32.186Z,25.82
2018-09-20T17:22:02.173Z,25.77
2018-09-20T17:24:30.231Z,25.73
2018-09-20T17:26:58.739Z,25.69
2018-09-20T17:29:26.855Z,25.58
2018-09-20T17:31:55.003Z,25.46
2018-09-20T17:34:23.243Z,25.36
2018-09-20T17:36:51.868Z,25.24
2018-09-20T17:39:22.474Z,25.09
2018-09-20T17:41:51.180Z,25.03
2018-09-20T17:44:25.948Z,24.95
2018-09-20T17:46:54.075Z,24.78
2018-09-20T17:49:25.106Z,24.68
2018-09-20T17:54:41.841Z,24.41
2018-09-20T17:59:29.819Z,24.30
2018-09-20T18:04:39.673Z,24.09
2018-09-20T18:07:20.845Z,23.97
2018-09-20T18:09:57.772Z,23.92
2018-09-20T18:12:30.367Z,23.86
2018-09-20T18:15:04.758Z,23.74
2018-09-20T18:17:34.665Z,23.70
2018-09-20T18:20:06.882Z,23.57
2018-09-20T18:22:37.775Z,23.51
2018-09-20T18:25:09.049Z,23.49
2018-09-20T18:27:42.044Z,23.40
2018-09-20T18:30:12.492Z,23.37
2018-09-20T18:32:45.897Z,23.38
2018-09-20T18:35:19.708Z,23.23
2018-09-20T18:37:52.449Z,23.17
2018-09-20T18:40:24.667Z,23.11
2018-09-20T18:43:00.973Z,23.01
2018-09-20T18:45:39.141Z,22.85
2018-09-20T18:48:18.095Z,22.90
2018-09-20T18:50:47.886Z,22.86
2018-09-20T18:53:24.792Z,22.90
2018-09-20T18:56:00.253Z,22.80
2018-09-20T18:58:37.427Z,22.77
2018-09-20T19:01:16.348Z,22.72
2018-09-20T19:04:01.592Z,22.54
2018-09-20T19:06:31.400Z,22.48
2018-09-20T19:09:11.828Z,22.43
2018-09-20T19:11:42.565Z,22.46
2018-09-20T19:14:35.060Z,22.45
2018-09-20T19:20:05.834Z,22.21
2018-09-20T19:22:46.844Z,22.12
2018-09-20T19:25:35.101Z,22.06
2018-09-20T19:28:20.345Z,21.87
2018-09-20T19:30:58.271Z,21.85
2018-09-20T19:33:31.311Z,21.82
2018-09-20T19:36:13.792Z,21.74
2018-09-20T19:39:11.159Z,21.52
2018-09-20T19:46:14.192Z,21.28
2018-09-20T19:49:12.715Z,21.38
2018-09-20T19:55:39.252Z,21.38
2018-09-20T19:58:17.759Z,21.24
2018-09-20T20:03:55.352Z,21.13
2018-09-20T20:06:29.018Z,21.03
2018-09-20T20:09:30.742Z,20.89
2018-09-20T20:12:01.536Z,20.83
2018-09-20T20:20:26.080Z,20.74
2018-09-20T20:34:08.503Z,20.39
2018-09-20T20:46:52.482Z,20.15
2018-09-20T20:52:01.325Z,19.95
2018-09-20T20:54:38.148Z,19.95
2018-09-20T21:05:44.923Z,19.86
2018-09-20T21:08:36.785Z,19.77
2018-09-20T21:11:26.320Z,19.80
2018-09-20T21:13:54.526Z,19.78
2018-09-20T21:16:22.668Z,19.65
2018-09-20T21:18:50.895Z,19.57
2018-09-20T21:21:19.198Z,19.54
2018-09-20T21:23:47.384Z,19.58
2018-09-20T21:26:16.002Z,19.49
2018-09-20T21:28:44.276Z,19.52
2018-09-20T21:31:12.461Z,19.44
2018-09-20T21:33:40.818Z,19.49
2018-09-20T21:36:09.675Z,19.50
2018-09-20T21:38:39.092Z,19.41
2018-09-20T21:41:07.380Z,19.28
2018-09-20T21:43:35.588Z,19.29
2018-09-20T21:46:03.942Z,19.24
2018-09-20T21:48:32.318Z,19.26
2018-09-20T21:51:01.002Z,19.29
2018-09-20T21:53:29.189Z,19.31
2018-09-20T21:55:57.377Z,19.24
2018-09-20T21:58:25.552Z,19.18
2018-09-20T22:01:02.420Z,19.13
2018-09-20T22:03:31.276Z,19.09
2018-09-20T22:05:59.459Z,19.01
2018-09-20T22:08:27.644Z,18.93
2018-09-20T22:10:56.001Z,18.88
2018-09-20T22:13:24.479Z,18.68
2018-09-20T22:15:52.776Z,18.60
2018-09-20T22:18:21.020Z,18.62
2018-09-20T22:20:49.217Z,18.67
2018-09-20T22:23:17.459Z,18.75
2018-09-20T22:25:45.719Z,18.58
2018-09-20T22:28:13.932Z,18.51
2018-09-20T22:30:42.173Z,18.50
2018-09-20T22:33:10.374Z,18.54
2018-09-20T22:35:38.633Z,18.54
2018-09-20T22:38:06.865Z,18.50
2018-09-20T22:40:34.923Z,18.43
2018-09-20T22:43:03.003Z,18.34
2018-09-20T22:45:31.069Z,18.24
2018-09-20T22:47:59.169Z,18.22
2018-09-20T22:50:27.281Z,18.22
2018-09-20T22:52:55.348Z,18.25
2018-09-20T22:55:23.446Z,18.19
2018-09-20T22:57:51.507Z,18.12
2018-09-20T23:00:23.948Z,18.16
2018-09-20T23:02:53.144Z,18.19
2018-09-20T23:05:21.249Z,18.30
2018-09-20T23:07:49.318Z,18.21
2018-09-20T23:10:17.419Z,18.01
2018-09-20T23:12:46.004Z,18.02
2018-09-20T23:15:14.101Z,17.95
2018-09-20T23:17:42.150Z,17.94
2018-09-20T23:20:10.220Z,17.97
2018-09-20T23:22:38.288Z,17.83
2018-09-20T23:25:06.440Z,17.85
2018-09-20T23:27:34.501Z,17.74
2018-09-20T23:30:02.579Z,17.77
2018-09-20T23:32:30.675Z,17.80
2018-09-20T23:34:58.766Z,17.71
2018-09-20T23:37:26.827Z,17.77
2018-09-20T23:39:54.883Z,17.76
2018-09-20T23:42:22.950Z,17.76
2018-09-20T23:44:51.015Z,17.75
2018-09-20T23:47:19.068Z,17.71
2018-09-20T23:49:47.151Z,17.71
2018-09-20T23:52:15.211Z,17.68
2018-09-20T23:54:43.293Z,17.62
2018-09-20T23:57:11.370Z,17.53
2018-09-20T23:59:39.451Z,17.52
